sensor_id;sensor_type;location;lat;lon;timestamp;P1;durP1;ratioP1;P2;durP2;ratioP2
48241;SDS011;34041;51.812;4.622;2024-03-08T00:01:01;38.00;;;21.13;;
48241;SDS011;34041;51.812;4.622;2024-03-08T00:04:01;34.85;;;20.85;;
48241;SDS011;34041;51.812;4.622;2024-03-08T00:07:02;33.55;;;21.48;;
48241;SDS011;34041;51.812;4.622;2024-03-08T00:10:06;30.77;;;19.83;;
48241;SDS011;34041;51.812;4.622;2024-03-08T00:13:11;35.13;;;21.48;;
48241;SDS011;34041;51.812;4.622;2024-03-08T00:16:11;35.90;;;22.42;;
48241;SDS011;34041;51.812;4.622;2024-03-08T00:19:12;34.40;;;22.52;;
48241;SDS011;34041;51.812;4.622;2024-03-08T00:22:12;34.33;;;22.77;;
48241;SDS011;34041;51.812;4.622;2024-03-08T00:25:12;38.72;;;22.55;;
48241;SDS011;34041;51.812;4.622;2024-03-08T00:28:13;37.95;;;22.20;;
48241;SDS011;34041;51.812;4.622;2024-03-08T00:31:18;34.42;;;23.58;;
48241;SDS011;34041;51.812;4.622;2024-03-08T00:34:18;36.95;;;22.42;;
48241;SDS011;34041;51.812;4.622;2024-03-08T00:37:18;32.35;;;21.33;;
48241;SDS011;34041;51.812;4.622;2024-03-08T00:40:19;38.53;;;23.55;;
48241;SDS011;34041;51.812;4.622;2024-03-08T00:43:19;35.97;;;21.75;;
48241;SDS011;34041;51.812;4.622;2024-03-08T00:46:19;34.08;;;21.65;;
48241;SDS011;34041;51.812;4.622;2024-03-08T00:49:19;37.25;;;21.77;;
48241;SDS011;34041;51.812;4.622;2024-03-08T00:52:20;34.97;;;20.42;;
48241;SDS011;34041;51.812;4.622;2024-03-08T00:55:20;33.08;;;21.92;;
48241;SDS011;34041;51.812;4.622;2024-03-08T00:58:20;37.05;;;22.33;;
48241;SDS011;34041;51.812;4.622;2024-03-08T01:01:21;34.45;;;22.00;;
48241;SDS011;34041;51.812;4.622;2024-03-08T01:04:22;32.80;;;21.55;;
48241;SDS011;34041;51.812;4.622;2024-03-08T01:07:23;30.52;;;21.80;;
48241;SDS011;34041;51.812;4.622;2024-03-08T01:10:23;32.08;;;21.48;;
48241;SDS011;34041;51.812;4.622;2024-03-08T01:13:23;33.20;;;21.33;;
48241;SDS011;34041;51.812;4.622;2024-03-08T01:16:23;30.48;;;20.52;;
48241;SDS011;34041;51.812;4.622;2024-03-08T01:19:24;33.05;;;21.45;;
48241;SDS011;34041;51.812;4.622;2024-03-08T01:22:24;29.85;;;22.02;;
48241;SDS011;34041;51.812;4.622;2024-03-08T01:25:24;30.33;;;20.60;;
48241;SDS011;34041;51.812;4.622;2024-03-08T01:28:25;37.20;;;22.15;;
48241;SDS011;34041;51.812;4.622;2024-03-08T01:31:25;31.08;;;20.42;;
48241;SDS011;34041;51.812;4.622;2024-03-08T01:34:26;37.83;;;21.92;;
48241;SDS011;34041;51.812;4.622;2024-03-08T01:37:28;33.47;;;22.08;;
48241;SDS011;34041;51.812;4.622;2024-03-08T01:40:29;30.05;;;21.17;;
48241;SDS011;34041;51.812;4.622;2024-03-08T01:43:29;30.83;;;21.17;;
48241;SDS011;34041;51.812;4.622;2024-03-08T01:46:30;31.25;;;21.10;;
48241;SDS011;34041;51.812;4.622;2024-03-08T01:49:31;36.65;;;22.67;;
48241;SDS011;34041;51.812;4.622;2024-03-08T01:52:31;29.75;;;19.13;;
48241;SDS011;34041;51.812;4.622;2024-03-08T01:55:32;35.30;;;21.90;;
48241;SDS011;34041;51.812;4.622;2024-03-08T01:58:32;30.42;;;20.20;;
48241;SDS011;34041;51.812;4.622;2024-03-08T02:01:33;31.33;;;19.83;;
48241;SDS011;34041;51.812;4.622;2024-03-08T02:04:33;33.63;;;19.50;;
48241;SDS011;34041;51.812;4.622;2024-03-08T02:07:34;36.10;;;21.95;;
48241;SDS011;34041;51.812;4.622;2024-03-08T02:10:34;29.75;;;20.75;;
48241;SDS011;34041;51.812;4.622;2024-03-08T02:13:34;33.28;;;20.27;;
48241;SDS011;34041;51.812;4.622;2024-03-08T02:16:35;29.52;;;19.23;;
48241;SDS011;34041;51.812;4.622;2024-03-08T02:19:35;34.35;;;20.95;;
48241;SDS011;34041;51.812;4.622;2024-03-08T02:22:36;29.80;;;20.08;;
48241;SDS011;34041;51.812;4.622;2024-03-08T02:25:37;33.88;;;19.60;;
48241;SDS011;34041;51.812;4.622;2024-03-08T02:28:37;29.95;;;20.05;;
48241;SDS011;34041;51.812;4.622;2024-03-08T02:31:37;31.75;;;20.77;;
48241;SDS011;34041;51.812;4.622;2024-03-08T02:34:39;29.83;;;20.67;;
48241;SDS011;34041;51.812;4.622;2024-03-08T02:37:39;40.08;;;20.95;;
48241;SDS011;34041;51.812;4.622;2024-03-08T02:40:39;32.85;;;21.17;;
48241;SDS011;34041;51.812;4.622;2024-03-08T02:43:40;33.67;;;21.48;;
48241;SDS011;34041;51.812;4.622;2024-03-08T02:46:40;30.95;;;20.65;;
48241;SDS011;34041;51.812;4.622;2024-03-08T02:49:40;33.00;;;19.58;;
48241;SDS011;34041;51.812;4.622;2024-03-08T02:52:40;30.30;;;20.83;;
48241;SDS011;34041;51.812;4.622;2024-03-08T02:55:41;27.85;;;20.60;;
48241;SDS011;34041;51.812;4.622;2024-03-08T02:58:42;29.08;;;22.15;;
48241;SDS011;34041;51.812;4.622;2024-03-08T03:01:43;34.00;;;21.20;;
48241;SDS011;34041;51.812;4.622;2024-03-08T03:04:43;28.58;;;19.35;;
48241;SDS011;34041;51.812;4.622;2024-03-08T03:07:43;29.55;;;21.17;;
48241;SDS011;34041;51.812;4.622;2024-03-08T03:10:43;27.75;;;20.25;;
48241;SDS011;34041;51.812;4.622;2024-03-08T03:13:44;25.90;;;21.17;;
48241;SDS011;34041;51.812;4.622;2024-03-08T03:16:48;33.58;;;20.63;;
48241;SDS011;34041;51.812;4.622;2024-03-08T03:19:48;31.25;;;21.33;;
48241;SDS011;34041;51.812;4.622;2024-03-08T03:22:48;29.45;;;19.95;;
48241;SDS011;34041;51.812;4.622;2024-03-08T03:25:51;26.02;;;20.88;;
48241;SDS011;34041;51.812;4.622;2024-03-08T03:28:52;28.85;;;20.52;;
48241;SDS011;34041;51.812;4.622;2024-03-08T03:31:53;26.80;;;19.30;;
48241;SDS011;34041;51.812;4.622;2024-03-08T03:34:54;31.00;;;21.13;;
48241;SDS011;34041;51.812;4.622;2024-03-08T03:37:54;33.30;;;22.25;;
48241;SDS011;34041;51.812;4.622;2024-03-08T03:44:14;23.23;;;15.00;;
48241;SDS011;34041;51.812;4.622;2024-03-08T03:47:15;30.10;;;22.80;;
48241;SDS011;34041;51.812;4.622;2024-03-08T03:50:15;34.17;;;19.92;;
48241;SDS011;34041;51.812;4.622;2024-03-08T03:53:15;29.30;;;20.58;;
48241;SDS011;34041;51.812;4.622;2024-03-08T03:56:16;27.80;;;21.70;;
48241;SDS011;34041;51.812;4.622;2024-03-08T03:59:16;31.15;;;22.45;;
48241;SDS011;34041;51.812;4.622;2024-03-08T04:02:17;31.40;;;22.80;;
48241;SDS011;34041;51.812;4.622;2024-03-08T04:05:17;27.33;;;20.33;;
48241;SDS011;34041;51.812;4.622;2024-03-08T04:08:17;28.23;;;21.50;;
48241;SDS011;34041;51.812;4.622;2024-03-08T04:11:17;32.50;;;22.38;;
48241;SDS011;34041;51.812;4.622;2024-03-08T04:14:18;34.45;;;23.42;;
48241;SDS011;34041;51.812;4.622;2024-03-08T04:17:18;30.30;;;21.88;;
48241;SDS011;34041;51.812;4.622;2024-03-08T04:20:18;31.90;;;22.00;;
48241;SDS011;34041;51.812;4.622;2024-03-08T04:23:19;33.38;;;21.55;;
48241;SDS011;34041;51.812;4.622;2024-03-08T04:26:19;29.05;;;20.77;;
48241;SDS011;34041;51.812;4.622;2024-03-08T04:29:19;29.42;;;21.60;;
48241;SDS011;34041;51.812;4.622;2024-03-08T04:32:20;29.88;;;21.35;;
48241;SDS011;34041;51.812;4.622;2024-03-08T04:35:20;28.50;;;21.73;;
48241;SDS011;34041;51.812;4.622;2024-03-08T04:38:21;35.08;;;21.92;;
48241;SDS011;34041;51.812;4.622;2024-03-08T04:41:21;32.78;;;22.38;;
48241;SDS011;34041;51.812;4.622;2024-03-08T04:44:23;35.03;;;21.88;;
48241;SDS011;34041;51.812;4.622;2024-03-08T04:47:24;30.08;;;21.73;;
48241;SDS011;34041;51.812;4.622;2024-03-08T04:50:25;28.23;;;21.80;;
48241;SDS011;34041;51.812;4.622;2024-03-08T04:53:29;29.50;;;20.35;;
48241;SDS011;34041;51.812;4.622;2024-03-08T04:56:29;29.48;;;21.77;;
48241;SDS011;34041;51.812;4.622;2024-03-08T04:59:29;28.27;;;21.75;;
48241;SDS011;34041;51.812;4.622;2024-03-08T05:02:29;27.13;;;20.58;;
48241;SDS011;34041;51.812;4.622;2024-03-08T05:05:30;33.33;;;23.80;;
48241;SDS011;34041;51.812;4.622;2024-03-08T05:08:30;27.80;;;20.75;;
48241;SDS011;34041;51.812;4.622;2024-03-08T05:11:30;30.23;;;23.40;;
48241;SDS011;34041;51.812;4.622;2024-03-08T05:14:31;29.08;;;20.55;;
48241;SDS011;34041;51.812;4.622;2024-03-08T05:17:31;32.67;;;22.52;;
48241;SDS011;34041;51.812;4.622;2024-03-08T05:20:31;32.55;;;23.10;;
48241;SDS011;34041;51.812;4.622;2024-03-08T05:23:31;28.67;;;21.98;;
48241;SDS011;34041;51.812;4.622;2024-03-08T05:26:32;32.72;;;22.95;;
48241;SDS011;34041;51.812;4.622;2024-03-08T05:29:33;29.63;;;23.02;;
48241;SDS011;34041;51.812;4.622;2024-03-08T05:32:33;30.98;;;22.92;;
48241;SDS011;34041;51.812;4.622;2024-03-08T05:35:33;29.33;;;22.27;;
48241;SDS011;34041;51.812;4.622;2024-03-08T05:38:33;30.50;;;22.55;;
48241;SDS011;34041;51.812;4.622;2024-03-08T05:41:34;29.65;;;20.67;;
48241;SDS011;34041;51.812;4.622;2024-03-08T05:44:34;27.67;;;22.13;;
48241;SDS011;34041;51.812;4.622;2024-03-08T05:47:34;25.98;;;20.90;;
48241;SDS011;34041;51.812;4.622;2024-03-08T05:50:35;29.15;;;22.08;;
48241;SDS011;34041;51.812;4.622;2024-03-08T05:53:35;29.85;;;23.35;;
48241;SDS011;34041;51.812;4.622;2024-03-08T05:56:36;31.73;;;23.98;;
48241;SDS011;34041;51.812;4.622;2024-03-08T05:59:36;28.02;;;21.40;;
48241;SDS011;34041;51.812;4.622;2024-03-08T06:02:37;29.83;;;24.60;;
48241;SDS011;34041;51.812;4.622;2024-03-08T06:05:40;29.90;;;22.10;;
48241;SDS011;34041;51.812;4.622;2024-03-08T06:08:41;32.28;;;21.95;;
48241;SDS011;34041;51.812;4.622;2024-03-08T06:11:43;32.53;;;22.13;;
48241;SDS011;34041;51.812;4.622;2024-03-08T06:14:44;35.08;;;24.75;;
48241;SDS011;34041;51.812;4.622;2024-03-08T06:17:44;31.00;;;22.80;;
48241;SDS011;34041;51.812;4.622;2024-03-08T06:20:44;27.27;;;20.83;;
48241;SDS011;34041;51.812;4.622;2024-03-08T06:23:46;30.50;;;23.00;;
48241;SDS011;34041;51.812;4.622;2024-03-08T06:26:46;34.90;;;23.58;;
48241;SDS011;34041;51.812;4.622;2024-03-08T06:29:46;30.95;;;23.67;;
48241;SDS011;34041;51.812;4.622;2024-03-08T06:32:49;31.42;;;22.65;;
48241;SDS011;34041;51.812;4.622;2024-03-08T06:35:49;30.95;;;22.75;;
48241;SDS011;34041;51.812;4.622;2024-03-08T06:38:49;35.72;;;23.73;;
48241;SDS011;34041;51.812;4.622;2024-03-08T06:41:50;33.83;;;23.67;;
48241;SDS011;34041;51.812;4.622;2024-03-08T06:44:51;29.58;;;22.23;;
48241;SDS011;34041;51.812;4.622;2024-03-08T06:47:51;30.30;;;21.88;;
48241;SDS011;34041;51.812;4.622;2024-03-08T06:50:51;31.63;;;24.13;;
48241;SDS011;34041;51.812;4.622;2024-03-08T06:53:52;28.50;;;22.80;;
48241;SDS011;34041;51.812;4.622;2024-03-08T06:56:52;26.38;;;21.38;;
48241;SDS011;34041;51.812;4.622;2024-03-08T06:59:52;30.40;;;22.63;;
48241;SDS011;34041;51.812;4.622;2024-03-08T07:02:54;28.52;;;20.95;;
48241;SDS011;34041;51.812;4.622;2024-03-08T07:05:55;26.90;;;20.58;;
48241;SDS011;34041;51.812;4.622;2024-03-08T07:08:58;30.58;;;21.95;;
48241;SDS011;34041;51.812;4.622;2024-03-08T07:11:59;29.58;;;22.70;;
48241;SDS011;34041;51.812;4.622;2024-03-08T07:14:59;30.73;;;22.58;;
48241;SDS011;34041;51.812;4.622;2024-03-08T07:17:59;26.75;;;20.75;;
48241;SDS011;34041;51.812;4.622;2024-03-08T07:21:00;27.17;;;21.88;;
48241;SDS011;34041;51.812;4.622;2024-03-08T07:24:02;32.72;;;21.95;;
48241;SDS011;34041;51.812;4.622;2024-03-08T07:27:25;25.17;;;20.73;;
48241;SDS011;34041;51.812;4.622;2024-03-08T07:30:25;27.35;;;20.08;;
48241;SDS011;34041;51.812;4.622;2024-03-08T07:33:44;28.90;;;21.27;;
48241;SDS011;34041;51.812;4.622;2024-03-08T07:36:44;24.52;;;20.00;;
48241;SDS011;34041;51.812;4.622;2024-03-08T07:39:45;22.30;;;19.63;;
48241;SDS011;34041;51.812;4.622;2024-03-08T07:42:45;26.02;;;19.92;;
48241;SDS011;34041;51.812;4.622;2024-03-08T07:45:45;23.02;;;20.42;;
48241;SDS011;34041;51.812;4.622;2024-03-08T07:48:46;26.40;;;20.92;;
48241;SDS011;34041;51.812;4.622;2024-03-08T07:51:46;25.80;;;21.15;;
48241;SDS011;34041;51.812;4.622;2024-03-08T07:54:46;25.83;;;19.40;;
48241;SDS011;34041;51.812;4.622;2024-03-08T07:57:47;27.83;;;20.05;;
48241;SDS011;34041;51.812;4.622;2024-03-08T08:00:47;21.25;;;17.30;;
48241;SDS011;34041;51.812;4.622;2024-03-08T08:03:49;25.52;;;18.77;;
48241;SDS011;34041;51.812;4.622;2024-03-08T08:06:49;22.63;;;18.73;;
48241;SDS011;34041;51.812;4.622;2024-03-08T08:09:52;26.42;;;19.75;;
48241;SDS011;34041;51.812;4.622;2024-03-08T08:12:52;24.00;;;18.25;;
48241;SDS011;34041;51.812;4.622;2024-03-08T08:15:53;23.65;;;17.38;;
48241;SDS011;34041;51.812;4.622;2024-03-08T08:18:53;26.77;;;19.02;;
48241;SDS011;34041;51.812;4.622;2024-03-08T08:21:54;24.50;;;19.85;;
48241;SDS011;34041;51.812;4.622;2024-03-08T08:24:55;22.87;;;18.67;;
48241;SDS011;34041;51.812;4.622;2024-03-08T08:27:55;23.73;;;19.08;;
48241;SDS011;34041;51.812;4.622;2024-03-08T08:30:56;25.65;;;19.40;;
48241;SDS011;34041;51.812;4.622;2024-03-08T08:33:56;24.75;;;19.85;;
48241;SDS011;34041;51.812;4.622;2024-03-08T08:36:59;22.10;;;18.10;;
48241;SDS011;34041;51.812;4.622;2024-03-08T08:40:00;22.50;;;18.40;;
48241;SDS011;34041;51.812;4.622;2024-03-08T08:43:05;21.48;;;17.38;;
48241;SDS011;34041;51.812;4.622;2024-03-08T08:46:05;23.98;;;18.20;;
48241;SDS011;34041;51.812;4.622;2024-03-08T08:49:06;23.73;;;17.67;;
48241;SDS011;34041;51.812;4.622;2024-03-08T08:52:08;27.85;;;19.13;;
48241;SDS011;34041;51.812;4.622;2024-03-08T08:55:09;25.45;;;18.58;;
48241;SDS011;34041;51.812;4.622;2024-03-08T08:58:14;22.60;;;19.08;;
48241;SDS011;34041;51.812;4.622;2024-03-08T09:01:14;22.98;;;17.67;;
48241;SDS011;34041;51.812;4.622;2024-03-08T09:04:14;25.10;;;18.33;;
48241;SDS011;34041;51.812;4.622;2024-03-08T09:07:15;18.43;;;16.20;;
48241;SDS011;34041;51.812;4.622;2024-03-08T09:10:16;21.67;;;18.02;;
48241;SDS011;34041;51.812;4.622;2024-03-08T09:13:16;28.80;;;18.90;;
48241;SDS011;34041;51.812;4.622;2024-03-08T09:16:17;25.20;;;19.60;;
48241;SDS011;34041;51.812;4.622;2024-03-08T09:19:17;23.33;;;18.27;;
48241;SDS011;34041;51.812;4.622;2024-03-08T09:22:19;20.65;;;16.55;;
48241;SDS011;34041;51.812;4.622;2024-03-08T09:25:19;25.00;;;20.02;;
48241;SDS011;34041;51.812;4.622;2024-03-08T09:28:20;21.50;;;18.25;;
48241;SDS011;34041;51.812;4.622;2024-03-08T09:31:21;20.27;;;17.67;;
48241;SDS011;34041;51.812;4.622;2024-03-08T09:34:21;23.90;;;17.30;;
48241;SDS011;34041;51.812;4.622;2024-03-08T09:37:21;24.35;;;17.58;;
48241;SDS011;34041;51.812;4.622;2024-03-08T09:40:22;19.33;;;16.85;;
48241;SDS011;34041;51.812;4.622;2024-03-08T09:43:25;23.48;;;16.67;;
48241;SDS011;34041;51.812;4.622;2024-03-08T09:46:28;20.92;;;18.67;;
48241;SDS011;34041;51.812;4.622;2024-03-08T09:49:28;22.10;;;17.33;;
48241;SDS011;34041;51.812;4.622;2024-03-08T09:52:29;18.85;;;16.20;;
48241;SDS011;34041;51.812;4.622;2024-03-08T09:55:30;19.17;;;16.60;;
48241;SDS011;34041;51.812;4.622;2024-03-08T09:58:34;20.83;;;17.77;;
48241;SDS011;34041;51.812;4.622;2024-03-08T10:01:34;23.83;;;18.17;;
48241;SDS011;34041;51.812;4.622;2024-03-08T10:04:35;19.33;;;16.52;;
48241;SDS011;34041;51.812;4.622;2024-03-08T10:07:38;21.55;;;16.73;;
48241;SDS011;34041;51.812;4.622;2024-03-08T10:10:38;20.02;;;17.35;;
48241;SDS011;34041;51.812;4.622;2024-03-08T10:13:39;18.67;;;16.73;;
48241;SDS011;34041;51.812;4.622;2024-03-08T10:16:40;20.08;;;17.90;;
48241;SDS011;34041;51.812;4.622;2024-03-08T10:19:49;20.87;;;17.77;;
48241;SDS011;34041;51.812;4.622;2024-03-08T10:22:49;19.80;;;16.63;;
48241;SDS011;34041;51.812;4.622;2024-03-08T10:25:49;20.40;;;16.73;;
48241;SDS011;34041;51.812;4.622;2024-03-08T10:28:50;19.10;;;16.93;;
48241;SDS011;34041;51.812;4.622;2024-03-08T10:31:51;19.50;;;16.75;;
48241;SDS011;34041;51.812;4.622;2024-03-08T10:34:51;19.50;;;16.20;;
48241;SDS011;34041;51.812;4.622;2024-03-08T10:37:52;19.05;;;16.90;;
48241;SDS011;34041;51.812;4.622;2024-03-08T10:41:03;18.85;;;16.23;;
48241;SDS011;34041;51.812;4.622;2024-03-08T10:45:05;21.20;;;16.45;;
48241;SDS011;34041;51.812;4.622;2024-03-08T10:47:37;21.70;;;17.42;;
48241;SDS011;34041;51.812;4.622;2024-03-08T10:50:40;20.92;;;16.88;;
48241;SDS011;34041;51.812;4.622;2024-03-08T10:53:41;22.55;;;17.30;;
48241;SDS011;34041;51.812;4.622;2024-03-08T10:56:42;22.73;;;16.77;;
48241;SDS011;34041;51.812;4.622;2024-03-08T10:59:43;26.58;;;18.42;;
48241;SDS011;34041;51.812;4.622;2024-03-08T11:02:43;21.75;;;16.65;;
48241;SDS011;34041;51.812;4.622;2024-03-08T11:05:44;25.13;;;16.95;;
48241;SDS011;34041;51.812;4.622;2024-03-08T11:08:45;23.10;;;17.20;;
48241;SDS011;34041;51.812;4.622;2024-03-08T11:11:46;24.17;;;18.33;;
48241;SDS011;34041;51.812;4.622;2024-03-08T11:14:49;28.30;;;17.75;;
48241;SDS011;34041;51.812;4.622;2024-03-08T11:17:50;25.52;;;17.75;;
48241;SDS011;34041;51.812;4.622;2024-03-08T11:20:53;25.88;;;17.55;;
48241;SDS011;34041;51.812;4.622;2024-03-08T11:24:00;20.95;;;16.67;;
48241;SDS011;34041;51.812;4.622;2024-03-08T11:27:00;20.10;;;15.73;;
48241;SDS011;34041;51.812;4.622;2024-03-08T11:30:04;22.15;;;16.95;;
48241;SDS011;34041;51.812;4.622;2024-03-08T11:33:11;21.30;;;15.70;;
48241;SDS011;34041;51.812;4.622;2024-03-08T11:36:13;23.45;;;15.95;;
48241;SDS011;34041;51.812;4.622;2024-03-08T11:39:16;22.23;;;16.02;;
48241;SDS011;34041;51.812;4.622;2024-03-08T11:42:17;20.33;;;15.32;;
48241;SDS011;34041;51.812;4.622;2024-03-08T11:45:18;21.75;;;15.80;;
48241;SDS011;34041;51.812;4.622;2024-03-08T11:48:21;17.88;;;13.50;;
48241;SDS011;34041;51.812;4.622;2024-03-08T11:51:21;20.20;;;14.85;;
48241;SDS011;34041;51.812;4.622;2024-03-08T11:54:21;18.95;;;14.63;;
48241;SDS011;34041;51.812;4.622;2024-03-08T11:57:23;20.83;;;15.48;;
48241;SDS011;34041;51.812;4.622;2024-03-08T12:00:23;18.92;;;13.85;;
48241;SDS011;34041;51.812;4.622;2024-03-08T12:03:26;16.58;;;13.07;;
48241;SDS011;34041;51.812;4.622;2024-03-08T12:06:27;20.88;;;15.52;;
48241;SDS011;34041;51.812;4.622;2024-03-08T12:09:27;18.15;;;13.48;;
48241;SDS011;34041;51.812;4.622;2024-03-08T12:12:27;19.23;;;13.68;;
48241;SDS011;34041;51.812;4.622;2024-03-08T12:15:29;18.35;;;15.18;;
48241;SDS011;34041;51.812;4.622;2024-03-08T12:18:32;19.33;;;14.48;;
48241;SDS011;34041;51.812;4.622;2024-03-08T12:21:32;21.05;;;13.15;;
48241;SDS011;34041;51.812;4.622;2024-03-08T12:24:34;22.73;;;15.00;;
48241;SDS011;34041;51.812;4.622;2024-03-08T12:27:38;17.45;;;13.88;;
48241;SDS011;34041;51.812;4.622;2024-03-08T12:30:46;25.30;;;15.65;;
48241;SDS011;34041;51.812;4.622;2024-03-08T12:33:51;18.42;;;13.55;;
48241;SDS011;34041;51.812;4.622;2024-03-08T12:36:52;20.23;;;14.60;;
48241;SDS011;34041;51.812;4.622;2024-03-08T12:39:54;19.02;;;14.68;;
48241;SDS011;34041;51.812;4.622;2024-03-08T12:42:55;19.40;;;15.43;;
48241;SDS011;34041;51.812;4.622;2024-03-08T12:45:56;20.73;;;15.45;;
48241;SDS011;34041;51.812;4.622;2024-03-08T12:48:56;26.92;;;14.10;;
48241;SDS011;34041;51.812;4.622;2024-03-08T12:51:57;20.42;;;15.48;;
48241;SDS011;34041;51.812;4.622;2024-03-08T12:54:57;20.23;;;13.70;;
48241;SDS011;34041;51.812;4.622;2024-03-08T12:57:57;18.83;;;13.18;;
48241;SDS011;34041;51.812;4.622;2024-03-08T13:00:59;19.52;;;13.68;;
48241;SDS011;34041;51.812;4.622;2024-03-08T13:04:00;20.88;;;14.63;;
48241;SDS011;34041;51.812;4.622;2024-03-08T13:07:02;18.27;;;14.30;;
48241;SDS011;34041;51.812;4.622;2024-03-08T13:10:03;20.13;;;14.45;;
48241;SDS011;34041;51.812;4.622;2024-03-08T13:13:04;20.40;;;14.30;;
48241;SDS011;34041;51.812;4.622;2024-03-08T13:16:05;18.83;;;13.88;;
48241;SDS011;34041;51.812;4.622;2024-03-08T13:19:08;22.00;;;16.65;;
48241;SDS011;34041;51.812;4.622;2024-03-08T13:22:09;18.95;;;14.52;;
48241;SDS011;34041;51.812;4.622;2024-03-08T13:25:13;21.30;;;15.02;;
48241;SDS011;34041;51.812;4.622;2024-03-08T13:28:13;20.33;;;14.20;;
48241;SDS011;34041;51.812;4.622;2024-03-08T13:31:13;20.40;;;15.07;;
48241;SDS011;34041;51.812;4.622;2024-03-08T13:34:14;23.35;;;15.88;;
48241;SDS011;34041;51.812;4.622;2024-03-08T13:37:15;18.30;;;15.50;;
48241;SDS011;34041;51.812;4.622;2024-03-08T13:40:16;19.42;;;14.15;;
48241;SDS011;34041;51.812;4.622;2024-03-08T13:43:18;18.80;;;14.73;;
48241;SDS011;34041;51.812;4.622;2024-03-08T13:46:19;31.98;;;16.17;;
48241;SDS011;34041;51.812;4.622;2024-03-08T13:49:19;22.33;;;15.30;;
48241;SDS011;34041;51.812;4.622;2024-03-08T13:52:19;20.05;;;15.75;;
48241;SDS011;34041;51.812;4.622;2024-03-08T13:55:20;23.88;;;17.02;;
48241;SDS011;34041;51.812;4.622;2024-03-08T13:58:21;23.88;;;16.30;;
48241;SDS011;34041;51.812;4.622;2024-03-08T14:01:22;23.65;;;16.40;;
48241;SDS011;34041;51.812;4.622;2024-03-08T14:04:22;20.42;;;16.50;;
48241;SDS011;34041;51.812;4.622;2024-03-08T14:07:23;18.92;;;14.38;;
48241;SDS011;34041;51.812;4.622;2024-03-08T14:10:23;20.98;;;15.80;;
48241;SDS011;34041;51.812;4.622;2024-03-08T14:13:23;21.48;;;15.35;;
48241;SDS011;34041;51.812;4.622;2024-03-08T14:16:25;24.63;;;16.48;;
48241;SDS011;34041;51.812;4.622;2024-03-08T14:19:26;20.48;;;15.95;;
48241;SDS011;34041;51.812;4.622;2024-03-08T14:22:26;22.10;;;15.70;;
48241;SDS011;34041;51.812;4.622;2024-03-08T14:25:26;19.90;;;14.60;;
48241;SDS011;34041;51.812;4.622;2024-03-08T14:28:29;19.95;;;15.88;;
48241;SDS011;34041;51.812;4.622;2024-03-08T14:31:32;21.58;;;15.85;;
48241;SDS011;34041;51.812;4.622;2024-03-08T14:34:33;21.88;;;15.13;;
48241;SDS011;34041;51.812;4.622;2024-03-08T14:37:34;19.85;;;16.15;;
48241;SDS011;34041;51.812;4.622;2024-03-08T14:40:34;24.13;;;17.88;;
48241;SDS011;34041;51.812;4.622;2024-03-08T14:43:36;22.25;;;14.45;;
48241;SDS011;34041;51.812;4.622;2024-03-08T14:46:36;22.27;;;15.13;;
48241;SDS011;34041;51.812;4.622;2024-03-08T14:49:37;22.48;;;16.10;;
48241;SDS011;34041;51.812;4.622;2024-03-08T14:52:38;21.42;;;17.35;;
48241;SDS011;34041;51.812;4.622;2024-03-08T14:55:39;21.95;;;16.10;;
48241;SDS011;34041;51.812;4.622;2024-03-08T14:58:40;24.63;;;16.80;;
48241;SDS011;34041;51.812;4.622;2024-03-08T15:01:40;21.38;;;15.98;;
48241;SDS011;34041;51.812;4.622;2024-03-08T15:04:42;21.95;;;15.32;;
48241;SDS011;34041;51.812;4.622;2024-03-08T15:07:43;22.05;;;16.17;;
48241;SDS011;34041;51.812;4.622;2024-03-08T15:10:43;21.35;;;15.52;;
48241;SDS011;34041;51.812;4.622;2024-03-08T15:13:44;21.35;;;16.17;;
48241;SDS011;34041;51.812;4.622;2024-03-08T15:16:46;19.60;;;16.13;;
48241;SDS011;34041;51.812;4.622;2024-03-08T15:19:48;21.15;;;15.95;;
48241;SDS011;34041;51.812;4.622;2024-03-08T15:22:48;24.33;;;17.23;;
48241;SDS011;34041;51.812;4.622;2024-03-08T15:25:49;22.05;;;16.27;;
48241;SDS011;34041;51.812;4.622;2024-03-08T15:28:49;23.33;;;17.30;;
48241;SDS011;34041;51.812;4.622;2024-03-08T15:31:52;24.08;;;16.50;;
48241;SDS011;34041;51.812;4.622;2024-03-08T15:34:53;24.23;;;17.85;;
48241;SDS011;34041;51.812;4.622;2024-03-08T15:37:54;23.75;;;17.33;;
48241;SDS011;34041;51.812;4.622;2024-03-08T15:40:58;21.25;;;16.65;;
48241;SDS011;34041;51.812;4.622;2024-03-08T15:43:58;20.42;;;16.00;;
48241;SDS011;34041;51.812;4.622;2024-03-08T15:46:59;22.20;;;16.13;;
48241;SDS011;34041;51.812;4.622;2024-03-08T15:50:00;24.67;;;17.95;;
48241;SDS011;34041;51.812;4.622;2024-03-08T15:53:03;24.38;;;15.75;;
48241;SDS011;34041;51.812;4.622;2024-03-08T15:56:04;24.08;;;16.92;;
48241;SDS011;34041;51.812;4.622;2024-03-08T15:59:05;24.33;;;18.23;;
48241;SDS011;34041;51.812;4.622;2024-03-08T16:02:07;22.58;;;16.33;;
48241;SDS011;34041;51.812;4.622;2024-03-08T16:05:07;22.13;;;15.25;;
48241;SDS011;34041;51.812;4.622;2024-03-08T16:08:12;21.58;;;16.13;;
48241;SDS011;34041;51.812;4.622;2024-03-08T16:11:20;26.13;;;17.33;;
48241;SDS011;34041;51.812;4.622;2024-03-08T16:14:21;22.10;;;16.40;;
48241;SDS011;34041;51.812;4.622;2024-03-08T16:17:22;23.00;;;16.40;;
48241;SDS011;34041;51.812;4.622;2024-03-08T16:20:24;23.02;;;16.10;;
48241;SDS011;34041;51.812;4.622;2024-03-08T16:23:25;28.08;;;17.33;;
48241;SDS011;34041;51.812;4.622;2024-03-08T16:26:26;20.63;;;17.05;;
48241;SDS011;34041;51.812;4.622;2024-03-08T16:29:27;25.33;;;16.50;;
48241;SDS011;34041;51.812;4.622;2024-03-08T16:32:28;19.75;;;15.55;;
48241;SDS011;34041;51.812;4.622;2024-03-08T16:35:28;23.50;;;18.20;;
48241;SDS011;34041;51.812;4.622;2024-03-08T16:38:28;26.90;;;17.77;;
48241;SDS011;34041;51.812;4.622;2024-03-08T16:41:28;19.95;;;16.52;;
48241;SDS011;34041;51.812;4.622;2024-03-08T16:44:29;22.13;;;17.38;;
48241;SDS011;34041;51.812;4.622;2024-03-08T16:47:30;21.10;;;15.68;;
48241;SDS011;34041;51.812;4.622;2024-03-08T16:50:30;22.13;;;15.82;;
48241;SDS011;34041;51.812;4.622;2024-03-08T16:53:34;21.70;;;16.30;;
48241;SDS011;34041;51.812;4.622;2024-03-08T16:56:34;23.33;;;16.77;;
48241;SDS011;34041;51.812;4.622;2024-03-08T16:59:38;22.73;;;16.17;;
48241;SDS011;34041;51.812;4.622;2024-03-08T17:02:38;21.90;;;17.10;;
48241;SDS011;34041;51.812;4.622;2024-03-08T17:05:38;25.48;;;16.90;;
48241;SDS011;34041;51.812;4.622;2024-03-08T17:08:44;22.65;;;16.95;;
48241;SDS011;34041;51.812;4.622;2024-03-08T17:11:46;25.27;;;18.40;;
48241;SDS011;34041;51.812;4.622;2024-03-08T17:14:48;26.77;;;17.42;;
48241;SDS011;34041;51.812;4.622;2024-03-08T17:17:49;23.70;;;18.50;;
48241;SDS011;34041;51.812;4.622;2024-03-08T17:20:49;24.60;;;17.02;;
48241;SDS011;34041;51.812;4.622;2024-03-08T17:23:50;23.83;;;17.63;;
48241;SDS011;34041;51.812;4.622;2024-03-08T17:26:50;23.05;;;16.45;;
48241;SDS011;34041;51.812;4.622;2024-03-08T17:29:51;24.13;;;18.52;;
48241;SDS011;34041;51.812;4.622;2024-03-08T17:32:52;21.48;;;17.10;;
48241;SDS011;34041;51.812;4.622;2024-03-08T17:35:55;24.40;;;16.25;;
48241;SDS011;34041;51.812;4.622;2024-03-08T17:38:55;23.27;;;16.75;;
48241;SDS011;34041;51.812;4.622;2024-03-08T17:42:00;23.95;;;17.70;;